createdAt,value
2022-09-30T00:01:55.717Z,4.28
2022-09-30T00:04:24.340Z,4.35
2022-09-30T00:06:54.741Z,3.95
2022-09-30T00:09:21.795Z,4.57
2022-09-30T00:11:48.833Z,3.55
2022-09-30T00:14:18.940Z,3.67
2022-09-30T00:16:48.473Z,3.97
2022-09-30T00:19:15.519Z,3.65
2022-09-30T00:21:45.152Z,3.90
2022-09-30T00:24:14.326Z,4.13
2022-09-30T00:26:43.389Z,3.78
2022-09-30T00:29:10.733Z,4.00
2022-09-30T00:31:37.776Z,3.60
2022-09-30T00:34:07.568Z,3.80
2022-09-30T00:36:47.934Z,3.97
2022-09-30T00:39:16.155Z,3.65
2022-09-30T00:41:46.817Z,4.50
2022-09-30T00:44:53.412Z,4.40
2022-09-30T00:47:48.552Z,5.18
2022-09-30T00:50:21.367Z,5.10
2022-09-30T00:53:19.764Z,6.10
2022-09-30T00:56:03.988Z,4.95
2022-09-30T00:58:44.863Z,4.78
2022-09-30T01:01:14.240Z,6.47
2022-09-30T01:03:59.241Z,5.50
2022-09-30T01:06:26.188Z,5.28
2022-09-30T01:08:55.447Z,7.35
2022-09-30T01:11:24.311Z,4.88
2022-09-30T01:13:56.286Z,6.72
2022-09-30T01:16:22.955Z,3.50
2022-09-30T01:19:18.314Z,7.03
2022-09-30T01:22:06.905Z,7.35
2022-09-30T01:25:00.716Z,7.60
2022-09-30T01:27:48.368Z,5.03
2022-09-30T01:30:47.999Z,5.53
2022-09-30T01:33:26.662Z,5.05
2022-09-30T01:35:59.322Z,3.28
2022-09-30T01:38:31.902Z,4.35
2022-09-30T01:41:16.910Z,3.75
2022-09-30T01:43:59.709Z,4.65
2022-09-30T01:46:48.004Z,3.00
2022-09-30T01:49:27.042Z,3.97
2022-09-30T01:52:08.492Z,4.30
2022-09-30T01:54:57.681Z,4.70
2022-09-30T01:57:53.054Z,4.25
2022-09-30T02:00:22.512Z,4.45
2022-09-30T02:02:55.877Z,4.15
2022-09-30T02:05:33.610Z,5.15
2022-09-30T02:08:16.800Z,4.32
2022-09-30T02:10:57.135Z,4.68
2022-09-30T02:13:31.321Z,4.53
2022-09-30T02:16:12.696Z,4.65
2022-09-30T02:19:10.130Z,3.38
2022-09-30T02:21:45.772Z,3.95
2022-09-30T02:24:19.048Z,5.43
2022-09-30T02:26:49.792Z,6.75
2022-09-30T02:29:21.606Z,5.55
2022-09-30T02:31:57.043Z,6.47
2022-09-30T02:34:32.947Z,4.15
2022-09-30T02:37:05.339Z,5.28
2022-09-30T02:39:56.386Z,5.65
2022-09-30T02:42:28.914Z,6.75
2022-09-30T02:45:16.310Z,6.80
2022-09-30T02:47:48.584Z,4.75
2022-09-30T02:50:23.581Z,6.78
2022-09-30T02:53:18.947Z,6.40
2022-09-30T02:56:03.731Z,5.95
2022-09-30T02:58:30.617Z,5.90
2022-09-30T03:00:57.908Z,6.28
2022-09-30T03:03:34.491Z,6.10
2022-09-30T03:06:01.330Z,4.97
2022-09-30T03:08:32.598Z,4.72
2022-09-30T03:11:01.892Z,5.40
2022-09-30T03:14:01.751Z,4.18
2022-09-30T03:16:44.383Z,5.32
2022-09-30T03:19:18.298Z,5.50
2022-09-30T03:22:10.787Z,5.72
2022-09-30T03:24:53.387Z,5.60
2022-09-30T03:27:55.505Z,4.72
2022-09-30T03:30:27.122Z,4.30
2022-09-30T03:32:56.132Z,3.15
2022-09-30T03:35:25.863Z,3.83
2022-09-30T03:38:15.005Z,3.85
2022-09-30T03:41:20.834Z,4.28
2022-09-30T03:43:55.849Z,4.95
2022-09-30T03:46:36.966Z,4.25
2022-09-30T03:49:09.718Z,4.43
2022-09-30T03:51:38.627Z,5.28
2022-09-30T03:54:10.462Z,5.70
2022-09-30T03:56:45.532Z,5.65
2022-09-30T03:59:22.844Z,4.95
2022-09-30T04:01:52.136Z,5.55
2022-09-30T04:04:21.129Z,5.15
2022-09-30T04:06:47.797Z,6.70
2022-09-30T04:09:19.534Z,6.18
2022-09-30T04:11:51.127Z,4.57
2022-09-30T04:14:17.782Z,6.40
2022-09-30T04:16:49.570Z,6.28
2022-09-30T04:19:19.874Z,6.80
2022-09-30T04:21:47.190Z,6.22
2022-09-30T04:24:13.906Z,5.68
2022-09-30T04:26:40.587Z,5.68
2022-09-30T04:29:09.505Z,5.75
2022-09-30T04:31:43.566Z,5.50
2022-09-30T04:34:11.786Z,5.90
2022-09-30T04:36:38.745Z,4.50
2022-09-30T04:39:05.715Z,4.93
2022-09-30T04:41:38.241Z,5.05
2022-09-30T04:44:08.137Z,4.68
2022-09-30T04:46:37.416Z,5.57
2022-09-30T04:49:09.463Z,7.22
2022-09-30T04:51:37.189Z,5.70
2022-09-30T04:54:06.133Z,6.38
2022-09-30T04:56:34.949Z,6.97
2022-09-30T04:59:03.793Z,4.35
2022-09-30T05:01:30.524Z,7.03
2022-09-30T05:04:02.220Z,8.90
2022-09-30T05:06:29.140Z,6.90
2022-09-30T05:08:58.132Z,6.85
2022-09-30T05:11:25.556Z,7.15
2022-09-30T05:13:52.251Z,8.30
2022-09-30T05:16:19.267Z,5.65
2022-09-30T05:18:49.648Z,5.47
2022-09-30T05:21:21.414Z,6.28
2022-09-30T05:23:48.136Z,6.18
2022-09-30T05:26:14.924Z,6.15
2022-09-30T05:28:42.432Z,4.65
2022-09-30T05:31:09.417Z,5.82
2022-09-30T05:33:38.749Z,4.63
2022-09-30T05:36:14.119Z,4.35
2022-09-30T05:38:43.814Z,4.43
2022-09-30T05:41:16.230Z,4.10
2022-09-30T05:43:47.876Z,4.90
2022-09-30T05:46:20.713Z,5.22
2022-09-30T05:48:49.993Z,4.82
2022-09-30T05:51:16.674Z,5.70
2022-09-30T05:53:46.070Z,6.07
2022-09-30T05:56:15.423Z,5.28
2022-09-30T05:58:42.339Z,5.72
2022-09-30T06:01:14.751Z,6.65
2022-09-30T06:03:43.693Z,5.88
2022-09-30T06:06:13.388Z,6.93
2022-09-30T06:08:41.326Z,4.70
2022-09-30T06:11:11.918Z,7.30
2022-09-30T06:13:42.139Z,6.60
2022-09-30T06:16:14.618Z,5.72
2022-09-30T06:18:44.476Z,5.40
2022-09-30T06:21:13.698Z,4.47
2022-09-30T06:23:40.621Z,5.90
2022-09-30T06:26:11.828Z,4.97
2022-09-30T06:28:40.953Z,5.20
2022-09-30T06:31:10.183Z,5.40
2022-09-30T06:33:37.355Z,4.90
2022-09-30T06:36:07.102Z,5.35
2022-09-30T06:38:37.447Z,4.75
2022-09-30T06:41:09.739Z,5.05
2022-09-30T06:43:45.048Z,4.75
2022-09-30T06:46:18.575Z,5.07
2022-09-30T06:48:47.177Z,5.18
2022-09-30T06:51:17.026Z,5.60
2022-09-30T06:53:43.755Z,6.20
2022-09-30T06:56:13.057Z,5.50
2022-09-30T06:58:42.948Z,5.32
2022-09-30T07:01:14.657Z,5.00
2022-09-30T07:03:44.466Z,5.53
2022-09-30T07:06:15.302Z,6.30
2022-09-30T07:08:44.438Z,6.28
2022-09-30T07:11:18.907Z,5.82
2022-09-30T07:13:51.367Z,5.20
2022-09-30T07:16:19.949Z,5.63
2022-09-30T07:18:51.400Z,5.60
2022-09-30T07:21:18.408Z,4.38
2022-09-30T07:23:52.793Z,4.93
2022-09-30T07:26:21.753Z,5.97
2022-09-30T07:28:50.060Z,6.50
2022-09-30T07:31:35.238Z,5.05
2022-09-30T07:34:11.111Z,4.95
2022-09-30T07:36:40.448Z,5.10
2022-09-30T07:39:12.785Z,5.05
2022-09-30T07:41:45.155Z,4.55
2022-09-30T07:44:17.347Z,4.40
2022-09-30T07:46:45.635Z,4.90
2022-09-30T07:49:24.782Z,5.40
2022-09-30T07:51:58.923Z,5.35
2022-09-30T07:54:28.576Z,5.30
2022-09-30T07:57:09.684Z,5.50
2022-09-30T07:59:39.932Z,5.28
2022-09-30T08:02:11.000Z,5.30
2022-09-30T08:04:43.681Z,5.47
2022-09-30T08:07:16.652Z,4.45
2022-09-30T08:09:46.039Z,4.85
2022-09-30T08:12:17.810Z,5.35
2022-09-30T08:14:49.193Z,6.03
2022-09-30T08:17:18.321Z,5.10
2022-09-30T08:19:47.539Z,5.45
2022-09-30T08:22:16.540Z,6.07
2022-09-30T08:24:45.821Z,5.22
2022-09-30T08:27:14.796Z,6.80
2022-09-30T08:30:00.131Z,6.25
2022-09-30T08:32:33.837Z,6.32
2022-09-30T08:35:00.579Z,6.07
2022-09-30T08:37:29.574Z,4.53
2022-09-30T08:39:58.425Z,4.25
2022-09-30T08:42:49.178Z,4.05
2022-09-30T08:45:38.066Z,3.78
2022-09-30T08:48:45.818Z,4.00
2022-09-30T08:51:22.803Z,3.10
2022-09-30T08:53:50.940Z,3.33
2022-09-30T08:56:27.913Z,4.00
2022-09-30T08:59:03.805Z,3.17
2022-09-30T09:01:38.254Z,3.42
2022-09-30T09:04:06.751Z,3.97
2022-09-30T09:07:03.025Z,3.60
2022-09-30T09:09:44.103Z,3.70
2022-09-30T09:12:38.436Z,4.63
2022-09-30T09:15:05.172Z,3.50
2022-09-30T09:17:32.014Z,3.83
2022-09-30T09:20:14.913Z,3.08
2022-09-30T09:22:45.912Z,3.30
2022-09-30T09:25:23.070Z,4.00
2022-09-30T09:27:49.951Z,3.20
2022-09-30T09:30:21.587Z,3.53
2022-09-30T09:33:00.830Z,3.30
2022-09-30T09:36:08.825Z,3.15
2022-09-30T09:38:47.187Z,3.90
2022-09-30T09:41:35.112Z,2.97
2022-09-30T09:44:10.386Z,2.97
2022-09-30T09:47:05.319Z,3.20
2022-09-30T09:49:34.897Z,3.30
2022-09-30T09:52:13.715Z,2.80
2022-09-30T09:54:42.812Z,2.40
2022-09-30T09:57:11.673Z,2.50
2022-09-30T10:02:33.412Z,2.50
2022-09-30T10:05:02.264Z,2.53
2022-09-30T10:07:33.422Z,2.50
2022-09-30T10:10:23.528Z,2.90
2022-09-30T10:12:53.806Z,2.78
2022-09-30T10:15:26.381Z,2.38
2022-09-30T10:17:58.545Z,2.38
2022-09-30T10:20:38.624Z,2.40
2022-09-30T10:23:25.625Z,2.65
2022-09-30T10:26:01.840Z,1.98
2022-09-30T10:28:33.806Z,1.40
2022-09-30T10:33:36.574Z,1.58
2022-09-30T10:38:35.046Z,1.60
2022-09-30T10:41:07.599Z,1.50
2022-09-30T10:43:41.372Z,1.55
2022-09-30T10:46:26.760Z,2.00
2022-09-30T10:48:55.152Z,1.42
2022-09-30T10:51:29.224Z,1.40
2022-09-30T10:53:57.240Z,1.75
2022-09-30T10:56:38.729Z,1.50
2022-09-30T10:59:16.468Z,1.80
2022-09-30T11:02:00.901Z,1.42
2022-09-30T11:04:40.568Z,1.60
2022-09-30T11:07:34.354Z,1.75
2022-09-30T11:10:22.042Z,1.10
2022-09-30T11:13:23.379Z,1.25
2022-09-30T11:16:08.606Z,1.20
2022-09-30T11:18:43.865Z,1.30
2022-09-30T11:21:39.813Z,1.50
2022-09-30T11:24:37.198Z,1.30
2022-09-30T11:27:25.305Z,1.33
2022-09-30T11:30:12.368Z,1.10
2022-09-30T11:32:54.456Z,1.77
2022-09-30T11:38:08.906Z,1.20
2022-09-30T11:40:46.346Z,1.20
2022-09-30T11:43:52.100Z,1.38
2022-09-30T11:46:57.730Z,0.75
2022-09-30T11:49:36.520Z,0.70
2022-09-30T11:52:08.521Z,0.70
2022-09-30T11:57:13.226Z,0.70
2022-09-30T11:59:48.489Z,1.10
2022-09-30T12:02:42.799Z,0.98
2022-09-30T12:05:26.409Z,1.15
2022-09-30T12:08:00.356Z,1.30
2022-09-30T12:11:10.941Z,1.30
2022-09-30T12:13:44.438Z,1.17
2022-09-30T12:16:26.016Z,1.35
2022-09-30T12:19:06.502Z,0.90
2022-09-30T12:21:45.428Z,1.17
2022-09-30T12:24:33.996Z,0.93
2022-09-30T12:27:02.015Z,0.90
2022-09-30T12:30:10.111Z,1.10
2022-09-30T12:32:36.738Z,1.00
2022-09-30T12:35:33.907Z,1.00
2022-09-30T12:38:16.273Z,1.00
2022-09-30T12:41:11.859Z,1.42
2022-09-30T12:44:00.819Z,1.10
2022-09-30T12:46:48.944Z,0.88
2022-09-30T12:49:23.537Z,1.20
2022-09-30T12:51:58.287Z,1.23
2022-09-30T12:54:38.404Z,1.15
2022-09-30T12:57:10.265Z,1.15
2022-09-30T12:59:48.255Z,0.93
2022-09-30T13:03:04.679Z,0.95
2022-09-30T13:05:33.746Z,0.90
2022-09-30T13:08:06.321Z,1.00
2022-09-30T13:10:59.592Z,0.70
2022-09-30T13:13:29.161Z,0.50
2022-09-30T13:16:03.107Z,0.68
2022-09-30T13:18:32.781Z,0.88
2022-09-30T13:21:05.504Z,0.70
2022-09-30T13:23:47.197Z,0.70
2022-09-30T13:26:29.101Z,0.80
2022-09-30T13:31:46.010Z,0.60
2022-09-30T13:34:23.837Z,0.73
2022-09-30T13:36:51.630Z,1.00
2022-09-30T13:39:34.315Z,1.42
2022-09-30T13:42:09.006Z,1.30
2022-09-30T13:44:44.170Z,1.27
2022-09-30T13:47:20.338Z,1.42
2022-09-30T13:49:57.831Z,1.42
2022-09-30T13:52:38.169Z,0.98
2022-09-30T13:55:41.154Z,0.98
2022-09-30T13:58:19.627Z,1.10
2022-09-30T14:01:13.529Z,0.90
2022-09-30T14:04:05.881Z,1.08
2022-09-30T14:09:34.984Z,1.00
2022-09-30T14:12:13.494Z,1.13
2022-09-30T14:15:31.731Z,1.23
2022-09-30T14:18:10.131Z,0.88
2022-09-30T14:20:49.583Z,0.90
2022-09-30T14:23:18.498Z,0.90
2022-09-30T14:26:30.451Z,1.02
2022-09-30T14:29:17.031Z,0.70
2022-09-30T14:31:47.741Z,0.90
2022-09-30T14:34:17.071Z,0.88
2022-09-30T14:36:45.215Z,0.90
2022-09-30T14:39:20.039Z,0.90
2022-09-30T14:42:01.919Z,0.70
2022-09-30T14:44:33.900Z,1.00
2022-09-30T14:49:35.949Z,1.40
2022-09-30T14:52:07.402Z,0.90
2022-09-30T14:54:34.234Z,0.90
2022-09-30T14:57:15.469Z,0.65
2022-09-30T14:59:43.997Z,1.13
2022-09-30T15:02:10.839Z,0.85
2022-09-30T15:04:46.649Z,1.02
2022-09-30T15:07:13.509Z,0.98
2022-09-30T15:09:44.167Z,1.00
2022-09-30T15:12:22.906Z,0.98
2022-09-30T15:14:50.815Z,1.00
2022-09-30T15:17:27.195Z,0.60
2022-09-30T15:19:55.780Z,0.80
2022-09-30T15:22:26.327Z,0.80
2022-09-30T15:24:54.204Z,1.00
2022-09-30T15:27:28.455Z,1.00
2022-09-30T15:30:15.110Z,1.60
2022-09-30T15:32:43.043Z,1.25
2022-09-30T15:35:19.413Z,1.20
2022-09-30T15:37:46.358Z,1.20
2022-09-30T15:40:35.129Z,1.15
2022-09-30T15:43:08.212Z,1.00
2022-09-30T15:45:45.573Z,1.08
2022-09-30T15:48:33.424Z,0.90
2022-09-30T15:51:01.316Z,1.65
2022-09-30T15:53:46.261Z,1.17
2022-09-30T15:56:31.295Z,1.52
2022-09-30T15:59:07.943Z,1.20
2022-09-30T16:01:38.984Z,1.05
2022-09-30T16:04:24.480Z,1.20
2022-09-30T16:06:55.051Z,1.17
2022-09-30T16:09:32.391Z,1.63
2022-09-30T16:12:18.417Z,1.23
2022-09-30T16:14:52.644Z,1.42
2022-09-30T16:17:26.932Z,1.00
2022-09-30T16:19:59.143Z,1.30
2022-09-30T16:22:41.202Z,1.20
2022-09-30T16:27:40.406Z,1.65
2022-09-30T16:30:14.416Z,1.40
2022-09-30T16:32:47.985Z,1.00
2022-09-30T16:35:18.843Z,1.10
2022-09-30T16:37:48.759Z,1.85
2022-09-30T16:40:23.550Z,1.58
2022-09-30T16:42:51.232Z,1.50
2022-09-30T16:45:18.432Z,2.78
2022-09-30T16:47:45.445Z,3.00
2022-09-30T16:50:39.458Z,1.60
2022-09-30T16:53:10.618Z,1.95
2022-09-30T16:55:37.609Z,2.10
2022-09-30T16:58:07.212Z,2.28
2022-09-30T17:00:41.309Z,2.60
2022-09-30T17:03:09.893Z,3.15
2022-09-30T17:05:36.582Z,3.00
2022-09-30T17:08:05.456Z,2.95
2022-09-30T17:10:35.183Z,3.53
2022-09-30T17:13:03.530Z,3.00
2022-09-30T17:15:31.990Z,3.30
2022-09-30T17:17:59.689Z,2.00
2022-09-30T17:20:29.268Z,1.85
2022-09-30T17:22:58.262Z,1.60
2022-09-30T17:25:27.489Z,2.60
2022-09-30T17:27:54.262Z,2.35
2022-09-30T17:30:21.323Z,2.28
2022-09-30T17:32:52.523Z,2.10
2022-09-30T17:35:22.535Z,3.00
2022-09-30T17:37:51.784Z,2.30
2022-09-30T17:40:39.317Z,2.38
2022-09-30T17:43:11.091Z,2.83
2022-09-30T17:48:11.869Z,5.50
2022-09-30T17:50:47.882Z,2.90
2022-09-30T17:53:18.925Z,8.05
2022-09-30T17:55:47.993Z,7.70
2022-09-30T17:58:17.985Z,5.03
2022-09-30T18:00:45.177Z,2.90
2022-09-30T18:03:14.409Z,3.90
2022-09-30T18:05:45.515Z,3.00
2022-09-30T18:08:13.087Z,3.70
2022-09-30T18:10:44.478Z,11.02
2022-09-30T18:13:13.648Z,4.43
2022-09-30T18:15:40.417Z,2.88
2022-09-30T18:18:09.218Z,3.25
2022-09-30T18:20:38.315Z,4.32
2022-09-30T18:23:07.481Z,3.30
2022-09-30T18:25:36.653Z,4.57
2022-09-30T18:28:09.260Z,3.70
2022-09-30T18:30:39.871Z,2.72
2022-09-30T18:33:07.369Z,2.20
2022-09-30T18:35:39.120Z,2.17
2022-09-30T18:38:09.585Z,1.95
2022-09-30T18:40:36.374Z,2.20
2022-09-30T18:43:05.744Z,2.22
2022-09-30T18:45:38.371Z,2.50
2022-09-30T18:48:11.630Z,2.03
2022-09-30T18:50:41.062Z,2.25
2022-09-30T18:53:10.005Z,1.88
2022-09-30T18:55:43.874Z,2.38
2022-09-30T18:58:12.908Z,2.03
2022-09-30T19:00:40.138Z,2.17
2022-09-30T19:03:14.010Z,2.78
2022-09-30T19:05:41.428Z,2.63
2022-09-30T19:08:11.024Z,2.90
2022-09-30T19:10:42.087Z,2.72
2022-09-30T19:13:11.649Z,2.38
2022-09-30T19:15:39.256Z,2.33
2022-09-30T19:18:06.197Z,2.80
2022-09-30T19:20:36.700Z,3.00
2022-09-30T19:23:10.767Z,2.58
2022-09-30T19:25:38.921Z,2.70
2022-09-30T19:28:05.949Z,3.08
2022-09-30T19:30:39.628Z,2.72
2022-09-30T19:33:08.830Z,3.20
2022-09-30T19:35:40.838Z,3.40
2022-09-30T19:38:10.778Z,2.22
2022-09-30T19:40:40.080Z,2.47
2022-09-30T19:43:11.562Z,2.70
2022-09-30T19:45:40.803Z,2.70
2022-09-30T19:48:08.428Z,2.35
2022-09-30T19:50:37.309Z,2.95
2022-09-30T19:53:06.973Z,3.00
2022-09-30T19:55:47.106Z,3.25
2022-09-30T19:58:17.058Z,3.00
2022-09-30T20:00:46.797Z,2.88
2022-09-30T20:03:15.777Z,2.33
2022-09-30T20:05:47.144Z,3.47
2022-09-30T20:08:18.326Z,3.60
2022-09-30T20:10:49.779Z,2.33
2022-09-30T20:13:18.946Z,3.13
2022-09-30T20:15:54.011Z,2.65
2022-09-30T20:18:23.990Z,2.38
2022-09-30T20:20:53.357Z,2.97
2022-09-30T20:23:27.445Z,2.63
2022-09-30T20:25:54.434Z,2.70
2022-09-30T20:28:24.553Z,2.30
2022-09-30T20:30:53.515Z,3.30
2022-09-30T20:33:25.939Z,3.97
2022-09-30T20:35:57.296Z,3.20
2022-09-30T20:38:24.924Z,3.38
2022-09-30T20:40:56.548Z,3.90
2022-09-30T20:43:28.035Z,3.42
2022-09-30T20:46:00.303Z,4.03
2022-09-30T20:48:33.540Z,3.80
2022-09-30T20:51:04.690Z,4.43
2022-09-30T20:53:31.564Z,3.78
2022-09-30T20:56:01.594Z,4.65
2022-09-30T20:58:30.749Z,4.38
2022-09-30T21:01:05.071Z,3.60
2022-09-30T21:03:38.160Z,4.07
2022-09-30T21:06:11.165Z,3.78
2022-09-30T21:08:45.626Z,3.97
2022-09-30T21:11:13.910Z,4.05
2022-09-30T21:13:45.448Z,4.97
2022-09-30T21:16:20.470Z,14.85
2022-09-30T21:18:51.907Z,18.60
2022-09-30T21:21:21.226Z,9.60
2022-09-30T21:23:48.090Z,8.88
2022-09-30T21:26:20.894Z,7.93
2022-09-30T21:28:49.657Z,4.57
2022-09-30T21:31:21.207Z,3.83
2022-09-30T21:34:00.443Z,4.70
2022-09-30T21:36:32.156Z,4.88
2022-09-30T21:39:04.560Z,7.30
2022-09-30T21:41:34.454Z,6.72
2022-09-30T21:44:06.487Z,4.15
2022-09-30T21:46:35.651Z,3.53
2022-09-30T21:49:19.241Z,4.03
2022-09-30T21:51:48.412Z,3.38
2022-09-30T21:54:15.495Z,2.90
2022-09-30T21:56:44.912Z,3.20
2022-09-30T21:59:15.528Z,3.17
2022-09-30T22:01:42.385Z,4.00
2022-09-30T22:04:13.906Z,3.47
2022-09-30T22:06:40.616Z,3.67
2022-09-30T22:09:07.313Z,3.78
2022-09-30T22:11:36.937Z,3.17
2022-09-30T22:14:03.869Z,2.75
2022-09-30T22:16:34.939Z,4.18
2022-09-30T22:19:04.535Z,3.63
2022-09-30T22:21:36.896Z,3.65
2022-09-30T22:24:08.991Z,3.72
2022-09-30T22:26:38.550Z,3.83
2022-09-30T22:29:10.437Z,4.10
2022-09-30T22:31:38.416Z,3.70
2022-09-30T22:34:26.615Z,4.60
2022-09-30T22:37:14.522Z,3.60
2022-09-30T22:39:41.233Z,3.75
2022-09-30T22:42:10.147Z,3.60
2022-09-30T22:44:37.777Z,4.90
2022-09-30T22:47:10.058Z,3.95
2022-09-30T22:49:41.554Z,3.97
2022-09-30T22:52:10.611Z,4.45
2022-09-30T22:54:37.628Z,4.53
2022-09-30T22:57:07.714Z,4.00
2022-09-30T22:59:37.543Z,5.57
2022-09-30T23:02:05.264Z,4.78
2022-09-30T23:04:32.748Z,4.20
2022-09-30T23:07:01.767Z,3.47
2022-09-30T23:09:31.107Z,4.53
2022-09-30T23:11:58.113Z,5.03
2022-09-30T23:14:29.445Z,4.88
2022-09-30T23:17:00.725Z,4.55
2022-09-30T23:19:29.696Z,5.05
2022-09-30T23:21:58.536Z,4.65
2022-09-30T23:24:31.309Z,4.95
2022-09-30T23:27:00.922Z,4.28
2022-09-30T23:29:29.818Z,4.18
2022-09-30T23:31:56.565Z,4.47
2022-09-30T23:34:23.301Z,4.70
2022-09-30T23:36:52.437Z,4.35
2022-09-30T23:39:21.806Z,4.25
2022-09-30T23:41:49.942Z,4.18
2022-09-30T23:44:19.650Z,4.32
2022-09-30T23:47:07.831Z,4.30
2022-09-30T23:49:38.304Z,4.85
2022-09-30T23:52:13.004Z,4.55
2022-09-30T23:54:41.735Z,4.50
2022-09-30T23:57:09.612Z,4.07
2022-09-30T23:59:38.794Z,4.68
